Big Bear Station Historical Data
Daily Summary for May 19, 2017 Units:  English    Metric   Both
« Previous Day
Next Day »
Daily Weekly Monthly Yearly Custom
  High: Low: Average:
Temperature: 69.8 °F 36.0 °F 51.1 °F
Dew Point: 27.6 °F 16.8 °F 22.9 °F
Humidity: 67 % 16 % 37 %
Wind Speed: 7.3 mph 0.0 mph 2.4 mph
Wind Gust: -999.0 mph - -
Wind:- - SW
Pressure: 30.16 in 30.09 in -
Precipitation: 0.00 in    
Historical Graphs
 
 
Tabular Data for May 19, 2017
Time Temperature Dew Point Pressure Wind Wind Speed Wind Gust Humidity Rainfall Rate (Hourly)
00:03 39.9 °F 26.3 °F 30.10 in SSW 1.7 mph -999.0 mph 58 % 0 in
00:18 39.7 °F 26.9 °F 30.10 in Calm   -999.0 mph 60 % 0 in
00:34 39.7 °F 27.3 °F 30.10 in Calm   -999.0 mph 61 % 0 in
00:49 39.2 °F 26.5 °F 30.10 in Calm   -999.0 mph 60 % 0 in
01:04 38.8 °F 26.5 °F 30.11 in South 2.2 mph -999.0 mph 61 % 0 in
01:19 38.5 °F 26.6 °F 30.10 in South 1.7 mph -999.0 mph 62 % 0 in
01:34 38.7 °F 27.6 °F 30.10 in South 1.7 mph -999.0 mph 64 % 0 in
01:50 37.8 °F 27.1 °F 30.10 in Calm   -999.0 mph 65 % 0 in
02:05 37.0 °F 26.3 °F 30.10 in South 1.1 mph -999.0 mph 65 % 0 in
02:20 36.5 °F 26.2 °F 30.10 in SSE 1.1 mph -999.0 mph 66 % 0 in
02:35 36.3 °F 26.4 °F 30.10 in South 2.2 mph -999.0 mph 67 % 0 in
02:50 36.5 °F 26.2 °F 30.09 in SSE 2.2 mph -999.0 mph 66 % 0 in
03:06 36.5 °F 25.5 °F 30.09 in South 3.2 mph -999.0 mph 64 % 0 in
03:21 36.3 °F 25.3 °F 30.09 in South 2.2 mph -999.0 mph 64 % 0 in
03:36 36.0 °F 22.6 °F 30.10 in SE 1.7 mph -999.0 mph 58 % 0 in
03:51 36.1 °F 20.2 °F 30.10 in South 1.7 mph -999.0 mph 52 % 0 in
04:07 37.0 °F 18.6 °F 30.10 in South 2.7 mph -999.0 mph 47 % 0 in
04:22 37.4 °F 16.9 °F 30.09 in SE 2.2 mph -999.0 mph 43 % 0 in
04:37 37.9 °F 16.8 °F 30.09 in Calm   -999.0 mph 42 % 0 in
04:53 37.6 °F 17.6 °F 30.10 in SSW 1.7 mph -999.0 mph 44 % 0 in
05:08 37.6 °F 17.6 °F 30.10 in SSE 1.7 mph -999.0 mph 44 % 0 in
05:23 37.0 °F 18.1 °F 30.09 in South 2.2 mph -999.0 mph 46 % 0 in
05:38 36.5 °F 18.2 °F 30.09 in Calm   -999.0 mph 47 % 0 in
05:54 36.5 °F 18.2 °F 30.10 in Calm   -999.0 mph 47 % 0 in
06:09 37.0 °F 18.6 °F 30.10 in NW 1.7 mph -999.0 mph 47 % 0 in
06:24 38.5 °F 19.5 °F 30.10 in SSE 2.7 mph -999.0 mph 46 % 0 in
06:40 39.6 °F 20.0 °F 30.10 in Calm   -999.0 mph 45 % 0 in
06:55 40.3 °F 20.1 °F 30.11 in Calm   -999.0 mph 44 % 0 in
07:10 41.0 °F 20.7 °F 30.11 in Calm   -999.0 mph 44 % 0 in
07:25 41.2 °F 22.0 °F 30.11 in NNW 2.2 mph -999.0 mph 46 % 0 in
07:40 43.3 °F 22.3 °F 30.11 in NW 3.7 mph -999.0 mph 43 % 0 in
07:56 45.3 °F 23.0 °F 30.12 in ESE 1.7 mph -999.0 mph 41 % 0 in
08:11 46.4 °F 22.8 °F 30.12 in ENE 2.7 mph -999.0 mph 39 % 0 in
08:26 47.3 °F 24.2 °F 30.12 in NNW 3.7 mph -999.0 mph 40 % 0 in
08:41 48.2 °F 24.4 °F 30.13 in NNW 5.3 mph -999.0 mph 39 % 0 in
08:56 49.3 °F 24.7 °F 30.13 in ESE 3.2 mph -999.0 mph 38 % 0 in
09:12 49.8 °F 24.6 °F 30.13 in West 2.7 mph -999.0 mph 37 % 0 in
09:27 51.1 °F 25.1 °F 30.12 in NW 5.8 mph -999.0 mph 36 % 0 in
09:42 52.3 °F 25.4 °F 30.12 in NW 5.8 mph -999.0 mph 35 % 0 in
09:58 52.5 °F 24.9 °F 30.12 in West 5.3 mph -999.0 mph 34 % 0 in
10:13 53.1 °F 25.5 °F 30.12 in WNW 4.7 mph -999.0 mph 34 % 0 in
10:28 53.8 °F 24.6 °F 30.12 in NNE 5.3 mph -999.0 mph 32 % 0 in
10:43 55.0 °F 26.4 °F 30.13 in NW 7.3 mph -999.0 mph 33 % 0 in
10:59 56.3 °F 23.6 °F 30.13 in ENE 3.7 mph -999.0 mph 28 % 0 in
11:14 57.7 °F 25.6 °F 30.13 in NW 6.8 mph -999.0 mph 29 % 0 in
11:29 58.8 °F 25.7 °F 30.13 in NNE 4.2 mph -999.0 mph 28 % 0 in
11:45 60.4 °F 24.4 °F 30.13 in NNE 3.7 mph -999.0 mph 25 % 0 in
12:00 60.6 °F 23.6 °F 30.13 in NNW 6.8 mph -999.0 mph 24 % 0 in
12:15 60.6 °F 23.6 °F 30.12 in WNW 6.3 mph -999.0 mph 24 % 0 in
12:30 62.4 °F 23.0 °F 30.12 in NW 3.2 mph -999.0 mph 22 % 0 in
12:45 63.0 °F 23.5 °F 30.12 in North 2.2 mph -999.0 mph 22 % 0 in
13:01 63.9 °F 23.2 °F 30.12 in ENE 1.1 mph -999.0 mph 21 % 0 in
13:16 66.9 °F 23.3 °F 30.12 in South 2.7 mph -999.0 mph 19 % 0 in
13:31 65.5 °F 20.8 °F 30.12 in SW 5.8 mph -999.0 mph 18 % 0 in
13:46 66.7 °F 21.8 °F 30.11 in NNW 4.2 mph -999.0 mph 18 % 0 in
14:02 67.6 °F 25.1 °F 30.11 in NW 4.2 mph -999.0 mph 20 % 0 in
14:17 67.6 °F 21.2 °F 30.11 in WNW 4.7 mph -999.0 mph 17 % 0 in
14:32 67.8 °F 21.4 °F 30.11 in SSE 1.1 mph -999.0 mph 17 % 0 in
14:47 68.4 °F 21.9 °F 30.11 in NNW 1.7 mph -999.0 mph 17 % 0 in
15:02 68.4 °F 23.2 °F 30.11 in NW 4.7 mph -999.0 mph 18 % 0 in
15:18 67.8 °F 22.7 °F 30.11 in NE 3.7 mph -999.0 mph 18 % 0 in
15:33 66.7 °F 20.5 °F 30.11 in ESE 1.7 mph -999.0 mph 17 % 0 in
15:48 67.5 °F 22.5 °F 30.10 in NNW 4.7 mph -999.0 mph 18 % 0 in
16:03 67.3 °F 21.0 °F 30.10 in North 3.2 mph -999.0 mph 17 % 0 in
16:19 67.1 °F 22.2 °F 30.10 in NNE 3.7 mph -999.0 mph 18 % 0 in
16:34 67.8 °F 24.0 °F 30.10 in NW 4.7 mph -999.0 mph 19 % 0 in
16:49 69.8 °F 23.0 °F 30.10 in NNW 3.2 mph -999.0 mph 17 % 0 in
17:05 69.6 °F 21.4 °F 30.10 in NNW 5.8 mph -999.0 mph 16 % 0 in
17:20 69.1 °F 21.0 °F 30.10 in NNE 2.7 mph -999.0 mph 16 % 0 in
17:35 69.4 °F 24.0 °F 30.10 in NW 3.2 mph -999.0 mph 18 % 0 in
17:51 68.0 °F 22.9 °F 30.10 in North 3.2 mph -999.0 mph 18 % 0 in
18:06 69.8 °F 23.0 °F 30.10 in WNW 3.2 mph -999.0 mph 17 % 0 in
18:22 68.4 °F 23.2 °F 30.10 in NW 3.7 mph -999.0 mph 18 % 0 in
18:37 67.5 °F 25.0 °F 30.11 in NNW 2.2 mph -999.0 mph 20 % 0 in
18:52 66.6 °F 23.0 °F 30.10 in NW 3.7 mph -999.0 mph 19 % 0 in
19:07 64.2 °F 22.3 °F 30.11 in NNW 1.7 mph -999.0 mph 20 % 0 in
19:22 60.3 °F 22.3 °F 30.12 in Calm   -999.0 mph 23 % 0 in
19:38 57.2 °F 21.7 °F 30.12 in Calm   -999.0 mph 25 % 0 in
19:53 54.3 °F 21.9 °F 30.12 in Calm   -999.0 mph 28 % 0 in
20:08 52.7 °F 22.1 °F 30.12 in Calm   -999.0 mph 30 % 0 in
20:23 50.5 °F 22.4 °F 30.12 in South 1.1 mph -999.0 mph 33 % 0 in
20:38 49.6 °F 21.7 °F 30.13 in SSE 1.7 mph -999.0 mph 33 % 0 in
20:54 48.4 °F 21.3 °F 30.13 in Calm   -999.0 mph 34 % 0 in
21:09 47.5 °F 22.5 °F 30.14 in Calm   -999.0 mph 37 % 0 in
21:24 46.6 °F 21.1 °F 30.14 in Calm   -999.0 mph 36 % 0 in
21:39 46.0 °F 21.8 °F 30.15 in Calm   -999.0 mph 38 % 0 in
21:55 45.3 °F 22.4 °F 30.15 in Calm   -999.0 mph 40 % 0 in
22:10 44.4 °F 21.0 °F 30.15 in SSW 1.7 mph -999.0 mph 39 % 0 in
22:25 43.9 °F 21.1 °F 30.16 in SSE 1.7 mph -999.0 mph 40 % 0 in
22:40 43.2 °F 20.5 °F 30.16 in Calm   -999.0 mph 40 % 0 in
22:55 42.3 °F 21.4 °F 30.16 in Calm   -999.0 mph 43 % 0 in
23:11 41.9 °F 25.1 °F 30.15 in South 1.1 mph -999.0 mph 51 % 0 in
23:26 41.2 °F 26.2 °F 30.15 in Calm   -999.0 mph 55 % 0 in
23:41 40.6 °F 22.9 °F 30.15 in Calm   -999.0 mph 49 % 0 in
23:56 40.3 °F 22.2 °F 30.15 in Calm   -999.0 mph 48 % 0 in
Big Bear CA Weather
Compliments of Weather Underground - 1.5 mb